sensor_id;sensor_type;location;lat;lon;timestamp;temperature;humidity
51029;DHT22;37054;52.054;8.600;2022-10-18T00:01:10;22.20;65.90
51029;DHT22;37054;52.054;8.600;2022-10-18T00:03:36;22.20;65.90
51029;DHT22;37054;52.054;8.600;2022-10-18T00:06:02;22.20;66.00
51029;DHT22;37054;52.054;8.600;2022-10-18T00:08:28;22.20;66.00
51029;DHT22;37054;52.054;8.600;2022-10-18T00:10:54;22.30;66.10
51029;DHT22;37054;52.054;8.600;2022-10-18T00:13:19;22.20;66.10
51029;DHT22;37054;52.054;8.600;2022-10-18T00:15:49;22.20;66.10
51029;DHT22;37054;52.054;8.600;2022-10-18T00:18:14;22.20;66.10
51029;DHT22;37054;52.054;8.600;2022-10-18T00:20:40;22.30;66.10
51029;DHT22;37054;52.054;8.600;2022-10-18T00:23:05;22.30;66.10
51029;DHT22;37054;52.054;8.600;2022-10-18T00:25:31;22.20;66.00
51029;DHT22;37054;52.054;8.600;2022-10-18T00:27:56;22.20;66.00
51029;DHT22;37054;52.054;8.600;2022-10-18T00:30:23;22.30;66.10
51029;DHT22;37054;52.054;8.600;2022-10-18T00:32:49;22.30;66.10
51029;DHT22;37054;52.054;8.600;2022-10-18T00:35:14;22.30;66.00
51029;DHT22;37054;52.054;8.600;2022-10-18T00:37:40;22.30;66.00
51029;DHT22;37054;52.054;8.600;2022-10-18T00:40:05;22.30;66.00
51029;DHT22;37054;52.054;8.600;2022-10-18T00:42:33;22.30;65.90
51029;DHT22;37054;52.054;8.600;2022-10-18T00:45:11;22.30;65.90
51029;DHT22;37054;52.054;8.600;2022-10-18T00:47:37;22.30;65.90
51029;DHT22;37054;52.054;8.600;2022-10-18T00:50:03;22.20;65.90
51029;DHT22;37054;52.054;8.600;2022-10-18T00:52:36;22.20;65.90
51029;DHT22;37054;52.054;8.600;2022-10-18T00:55:02;22.20;66.00
51029;DHT22;37054;52.054;8.600;2022-10-18T00:57:29;22.20;66.00
51029;DHT22;37054;52.054;8.600;2022-10-18T00:59:54;22.20;66.00
51029;DHT22;37054;52.054;8.600;2022-10-18T01:02:20;22.10;66.00
51029;DHT22;37054;52.054;8.600;2022-10-18T01:04:45;22.20;66.00
51029;DHT22;37054;52.054;8.600;2022-10-18T01:13:00;22.30;66.00
51029;DHT22;37054;52.054;8.600;2022-10-18T01:15:34;22.20;66.10
51029;DHT22;37054;52.054;8.600;2022-10-18T01:23:12;22.30;66.00
51029;DHT22;37054;52.054;8.600;2022-10-18T01:33:31;22.20;65.80
51029;DHT22;37054;52.054;8.600;2022-10-18T01:36:01;22.20;65.80
51029;DHT22;37054;52.054;8.600;2022-10-18T01:38:28;22.20;65.80
51029;DHT22;37054;52.054;8.600;2022-10-18T01:40:54;22.20;65.70
51029;DHT22;37054;52.054;8.600;2022-10-18T01:43:20;22.20;65.60
51029;DHT22;37054;52.054;8.600;2022-10-18T01:45:47;22.20;65.40
51029;DHT22;37054;52.054;8.600;2022-10-18T01:48:13;22.20;65.50
51029;DHT22;37054;52.054;8.600;2022-10-18T01:50:40;22.10;65.50
51029;DHT22;37054;52.054;8.600;2022-10-18T01:53:18;22.10;65.50
51029;DHT22;37054;52.054;8.600;2022-10-18T01:55:45;22.10;65.60
51029;DHT22;37054;52.054;8.600;2022-10-18T01:58:17;22.20;65.60
51029;DHT22;37054;52.054;8.600;2022-10-18T02:00:43;22.20;65.70
51029;DHT22;37054;52.054;8.600;2022-10-18T02:03:13;22.20;65.70
51029;DHT22;37054;52.054;8.600;2022-10-18T02:10:55;22.30;65.70
51029;DHT22;37054;52.054;8.600;2022-10-18T02:13:24;22.30;65.70
51029;DHT22;37054;52.054;8.600;2022-10-18T02:15:53;22.30;65.70
51029;DHT22;37054;52.054;8.600;2022-10-18T02:18:22;22.30;65.60
51029;DHT22;37054;52.054;8.600;2022-10-18T02:20:48;22.30;65.50
51029;DHT22;37054;52.054;8.600;2022-10-18T02:23:15;22.40;65.30
51029;DHT22;37054;52.054;8.600;2022-10-18T02:25:44;22.30;65.20
51029;DHT22;37054;52.054;8.600;2022-10-18T02:28:09;22.30;65.30
51029;DHT22;37054;52.054;8.600;2022-10-18T02:30:36;22.30;65.30
51029;DHT22;37054;52.054;8.600;2022-10-18T02:35:50;22.30;65.30
51029;DHT22;37054;52.054;8.600;2022-10-18T02:38:18;22.30;65.30
51029;DHT22;37054;52.054;8.600;2022-10-18T02:40:44;22.30;65.30
51029;DHT22;37054;52.054;8.600;2022-10-18T02:43:10;22.30;65.30
51029;DHT22;37054;52.054;8.600;2022-10-18T02:45:35;22.30;65.20
51029;DHT22;37054;52.054;8.600;2022-10-18T02:48:01;22.20;65.10
51029;DHT22;37054;52.054;8.600;2022-10-18T02:50:26;22.30;65.10
51029;DHT22;37054;52.054;8.600;2022-10-18T02:52:52;22.30;65.10
51029;DHT22;37054;52.054;8.600;2022-10-18T02:55:17;22.30;65.10
51029;DHT22;37054;52.054;8.600;2022-10-18T02:57:43;22.30;65.10
51029;DHT22;37054;52.054;8.600;2022-10-18T03:00:08;22.30;65.10
51029;DHT22;37054;52.054;8.600;2022-10-18T03:02:34;22.30;65.10
51029;DHT22;37054;52.054;8.600;2022-10-18T03:05:00;22.30;65.00
51029;DHT22;37054;52.054;8.600;2022-10-18T03:07:25;22.30;64.90
51029;DHT22;37054;52.054;8.600;2022-10-18T03:09:51;22.30;64.80
51029;DHT22;37054;52.054;8.600;2022-10-18T03:12:16;22.20;64.70
51029;DHT22;37054;52.054;8.600;2022-10-18T03:14:42;22.20;64.70
51029;DHT22;37054;52.054;8.600;2022-10-18T03:17:07;22.20;64.70
51029;DHT22;37054;52.054;8.600;2022-10-18T03:19:33;22.20;64.70
51029;DHT22;37054;52.054;8.600;2022-10-18T03:21:58;22.20;64.70
51029;DHT22;37054;52.054;8.600;2022-10-18T03:24:24;22.20;64.70
51029;DHT22;37054;52.054;8.600;2022-10-18T03:26:49;22.20;64.70
51029;DHT22;37054;52.054;8.600;2022-10-18T03:29:15;22.20;64.70
51029;DHT22;37054;52.054;8.600;2022-10-18T03:31:40;22.20;64.70
51029;DHT22;37054;52.054;8.600;2022-10-18T03:34:06;22.10;64.60
51029;DHT22;37054;52.054;8.600;2022-10-18T03:36:31;22.10;64.50
51029;DHT22;37054;52.054;8.600;2022-10-18T03:38:58;22.10;64.40
51029;DHT22;37054;52.054;8.600;2022-10-18T03:41:23;22.00;64.30
51029;DHT22;37054;52.054;8.600;2022-10-18T03:43:49;22.00;64.30
51029;DHT22;37054;52.054;8.600;2022-10-18T03:46:15;22.00;64.50
51029;DHT22;37054;52.054;8.600;2022-10-18T03:48:40;22.00;64.60
51029;DHT22;37054;52.054;8.600;2022-10-18T03:51:06;22.00;64.70
51029;DHT22;37054;52.054;8.600;2022-10-18T03:53:31;22.00;64.60
51029;DHT22;37054;52.054;8.600;2022-10-18T03:55:57;22.00;64.60
51029;DHT22;37054;52.054;8.600;2022-10-18T03:58:22;22.00;64.60
51029;DHT22;37054;52.054;8.600;2022-10-18T04:00:49;22.00;64.70
51029;DHT22;37054;52.054;8.600;2022-10-18T04:03:15;21.90;64.60
51029;DHT22;37054;52.054;8.600;2022-10-18T04:05:41;21.90;64.60
51029;DHT22;37054;52.054;8.600;2022-10-18T04:08:06;21.90;64.60
51029;DHT22;37054;52.054;8.600;2022-10-18T04:10:32;21.90;64.70
51029;DHT22;37054;52.054;8.600;2022-10-18T04:12:57;21.90;64.60
51029;DHT22;37054;52.054;8.600;2022-10-18T04:15:23;21.90;64.60
51029;DHT22;37054;52.054;8.600;2022-10-18T04:17:48;21.80;64.50
51029;DHT22;37054;52.054;8.600;2022-10-18T04:20:14;21.80;64.50
51029;DHT22;37054;52.054;8.600;2022-10-18T04:22:40;21.80;64.40
51029;DHT22;37054;52.054;8.600;2022-10-18T04:25:06;21.80;64.50
51029;DHT22;37054;52.054;8.600;2022-10-18T04:27:31;21.80;64.40
51029;DHT22;37054;52.054;8.600;2022-10-18T04:29:57;21.80;64.40
51029;DHT22;37054;52.054;8.600;2022-10-18T04:32:22;21.80;64.30
51029;DHT22;37054;52.054;8.600;2022-10-18T04:34:48;21.80;64.30
51029;DHT22;37054;52.054;8.600;2022-10-18T04:37:14;21.70;64.30
51029;DHT22;37054;52.054;8.600;2022-10-18T04:39:39;21.70;64.30
51029;DHT22;37054;52.054;8.600;2022-10-18T04:42:05;21.70;64.30
51029;DHT22;37054;52.054;8.600;2022-10-18T04:44:30;21.70;64.30
51029;DHT22;37054;52.054;8.600;2022-10-18T04:46:56;21.70;64.30
51029;DHT22;37054;52.054;8.600;2022-10-18T04:49:21;21.70;64.40
51029;DHT22;37054;52.054;8.600;2022-10-18T04:51:47;21.60;64.50
51029;DHT22;37054;52.054;8.600;2022-10-18T04:54:12;21.70;64.50
51029;DHT22;37054;52.054;8.600;2022-10-18T04:56:38;21.70;64.60
51029;DHT22;37054;52.054;8.600;2022-10-18T04:59:03;21.70;64.40
51029;DHT22;37054;52.054;8.600;2022-10-18T05:01:29;21.70;64.40
51029;DHT22;37054;52.054;8.600;2022-10-18T05:03:54;21.60;64.40
51029;DHT22;37054;52.054;8.600;2022-10-18T05:06:20;21.60;64.40
51029;DHT22;37054;52.054;8.600;2022-10-18T05:08:46;21.50;64.40
51029;DHT22;37054;52.054;8.600;2022-10-18T05:11:12;21.50;64.30
51029;DHT22;37054;52.054;8.600;2022-10-18T05:13:37;21.50;64.40
51029;DHT22;37054;52.054;8.600;2022-10-18T05:16:03;21.50;64.50
51029;DHT22;37054;52.054;8.600;2022-10-18T05:18:29;21.40;64.60
51029;DHT22;37054;52.054;8.600;2022-10-18T05:20:54;21.50;64.60
51029;DHT22;37054;52.054;8.600;2022-10-18T05:23:20;21.40;64.70
51029;DHT22;37054;52.054;8.600;2022-10-18T05:25:45;21.40;64.70
51029;DHT22;37054;52.054;8.600;2022-10-18T05:28:12;21.40;64.70
51029;DHT22;37054;52.054;8.600;2022-10-18T05:30:38;21.40;64.70
51029;DHT22;37054;52.054;8.600;2022-10-18T05:33:03;21.40;64.90
51029;DHT22;37054;52.054;8.600;2022-10-18T05:35:29;21.50;65.00
51029;DHT22;37054;52.054;8.600;2022-10-18T05:37:54;21.50;65.00
51029;DHT22;37054;52.054;8.600;2022-10-18T05:40:20;21.50;65.00
51029;DHT22;37054;52.054;8.600;2022-10-18T05:42:45;21.50;64.90
51029;DHT22;37054;52.054;8.600;2022-10-18T05:45:11;21.60;64.90
51029;DHT22;37054;52.054;8.600;2022-10-18T05:47:36;21.60;64.90
51029;DHT22;37054;52.054;8.600;2022-10-18T05:50:02;21.50;64.80
51029;DHT22;37054;52.054;8.600;2022-10-18T05:52:28;21.50;64.80
51029;DHT22;37054;52.054;8.600;2022-10-18T05:54:53;21.60;64.80
51029;DHT22;37054;52.054;8.600;2022-10-18T05:57:19;21.60;64.80
51029;DHT22;37054;52.054;8.600;2022-10-18T05:59:44;21.60;64.70
51029;DHT22;37054;52.054;8.600;2022-10-18T06:02:10;21.60;64.70
51029;DHT22;37054;52.054;8.600;2022-10-18T06:04:36;21.60;64.80
51029;DHT22;37054;52.054;8.600;2022-10-18T06:07:02;21.60;64.80
51029;DHT22;37054;52.054;8.600;2022-10-18T06:09:27;21.70;64.80
51029;DHT22;37054;52.054;8.600;2022-10-18T06:11:54;21.70;64.80
51029;DHT22;37054;52.054;8.600;2022-10-18T06:14:21;21.70;64.80
51029;DHT22;37054;52.054;8.600;2022-10-18T06:16:47;21.70;64.80
51029;DHT22;37054;52.054;8.600;2022-10-18T06:19:12;21.70;64.90
51029;DHT22;37054;52.054;8.600;2022-10-18T06:21:38;21.70;64.80
51029;DHT22;37054;52.054;8.600;2022-10-18T06:24:03;21.80;64.80
51029;DHT22;37054;52.054;8.600;2022-10-18T06:26:29;21.80;64.80
51029;DHT22;37054;52.054;8.600;2022-10-18T06:28:55;21.80;64.80
51029;DHT22;37054;52.054;8.600;2022-10-18T06:31:20;21.80;64.80
51029;DHT22;37054;52.054;8.600;2022-10-18T06:33:46;21.90;64.80
51029;DHT22;37054;52.054;8.600;2022-10-18T06:36:13;22.00;64.80
51029;DHT22;37054;52.054;8.600;2022-10-18T06:38:39;21.90;64.70
51029;DHT22;37054;52.054;8.600;2022-10-18T06:41:04;22.00;64.70
51029;DHT22;37054;52.054;8.600;2022-10-18T06:43:30;22.00;64.60
51029;DHT22;37054;52.054;8.600;2022-10-18T06:45:56;22.00;64.60
51029;DHT22;37054;52.054;8.600;2022-10-18T06:48:21;22.00;64.50
51029;DHT22;37054;52.054;8.600;2022-10-18T06:50:51;22.00;64.40
51029;DHT22;37054;52.054;8.600;2022-10-18T06:53:17;22.00;64.50
51029;DHT22;37054;52.054;8.600;2022-10-18T06:55:42;22.00;64.50
51029;DHT22;37054;52.054;8.600;2022-10-18T06:58:08;22.00;64.60
51029;DHT22;37054;52.054;8.600;2022-10-18T07:00:33;22.00;64.60
51029;DHT22;37054;52.054;8.600;2022-10-18T07:03:00;22.00;64.60
51029;DHT22;37054;52.054;8.600;2022-10-18T07:05:31;22.00;64.60
51029;DHT22;37054;52.054;8.600;2022-10-18T07:07:57;22.00;64.70
51029;DHT22;37054;52.054;8.600;2022-10-18T07:10:23;22.00;64.70
51029;DHT22;37054;52.054;8.600;2022-10-18T07:12:48;22.10;64.80
51029;DHT22;37054;52.054;8.600;2022-10-18T07:15:14;22.10;64.80
51029;DHT22;37054;52.054;8.600;2022-10-18T07:17:39;22.20;64.80
51029;DHT22;37054;52.054;8.600;2022-10-18T07:20:15;22.20;64.80
51029;DHT22;37054;52.054;8.600;2022-10-18T07:22:40;22.20;64.90
51029;DHT22;37054;52.054;8.600;2022-10-18T07:25:06;22.30;64.90
51029;DHT22;37054;52.054;8.600;2022-10-18T07:27:36;22.20;64.80
51029;DHT22;37054;52.054;8.600;2022-10-18T07:30:03;22.20;64.80
51029;DHT22;37054;52.054;8.600;2022-10-18T07:32:28;22.20;64.80
51029;DHT22;37054;52.054;8.600;2022-10-18T07:34:54;22.20;64.90
51029;DHT22;37054;52.054;8.600;2022-10-18T07:37:19;22.20;64.90
51029;DHT22;37054;52.054;8.600;2022-10-18T07:39:45;22.30;65.00
51029;DHT22;37054;52.054;8.600;2022-10-18T07:42:10;22.30;65.00
51029;DHT22;37054;52.054;8.600;2022-10-18T07:44:36;22.30;65.00
51029;DHT22;37054;52.054;8.600;2022-10-18T07:47:01;22.40;65.00
51029;DHT22;37054;52.054;8.600;2022-10-18T07:49:27;22.50;65.00
51029;DHT22;37054;52.054;8.600;2022-10-18T07:51:52;22.60;65.00
51029;DHT22;37054;52.054;8.600;2022-10-18T07:54:18;22.70;65.00
51029;DHT22;37054;52.054;8.600;2022-10-18T07:56:43;22.80;64.90
51029;DHT22;37054;52.054;8.600;2022-10-18T07:59:09;22.80;64.80
51029;DHT22;37054;52.054;8.600;2022-10-18T08:01:35;22.80;64.70
51029;DHT22;37054;52.054;8.600;2022-10-18T08:04:01;22.80;64.60
51029;DHT22;37054;52.054;8.600;2022-10-18T08:06:26;22.90;64.60
51029;DHT22;37054;52.054;8.600;2022-10-18T08:08:52;22.90;64.40
51029;DHT22;37054;52.054;8.600;2022-10-18T08:11:19;22.90;64.40
51029;DHT22;37054;52.054;8.600;2022-10-18T08:13:47;22.90;64.40
51029;DHT22;37054;52.054;8.600;2022-10-18T08:16:14;22.90;64.40
51029;DHT22;37054;52.054;8.600;2022-10-18T08:18:46;22.90;64.50
51029;DHT22;37054;52.054;8.600;2022-10-18T08:21:12;23.00;64.40
51029;DHT22;37054;52.054;8.600;2022-10-18T08:23:37;23.00;64.30
51029;DHT22;37054;52.054;8.600;2022-10-18T08:26:10;23.00;64.40
51029;DHT22;37054;52.054;8.600;2022-10-18T08:28:36;23.00;64.50
51029;DHT22;37054;52.054;8.600;2022-10-18T08:31:06;23.00;64.40
51029;DHT22;37054;52.054;8.600;2022-10-18T08:33:32;22.90;64.40
51029;DHT22;37054;52.054;8.600;2022-10-18T08:36:00;22.90;64.60
51029;DHT22;37054;52.054;8.600;2022-10-18T08:38:29;22.80;64.80
51029;DHT22;37054;52.054;8.600;2022-10-18T08:40:55;22.80;64.80
51029;DHT22;37054;52.054;8.600;2022-10-18T08:46:49;22.70;65.10
51029;DHT22;37054;52.054;8.600;2022-10-18T08:55:23;22.70;65.70
51029;DHT22;37054;52.054;8.600;2022-10-18T08:57:49;22.70;66.00
51029;DHT22;37054;52.054;8.600;2022-10-18T09:00:26;22.80;66.20
51029;DHT22;37054;52.054;8.600;2022-10-18T09:05:30;23.00;66.20
51029;DHT22;37054;52.054;8.600;2022-10-18T09:08:02;23.10;66.40
51029;DHT22;37054;52.054;8.600;2022-10-18T09:10:41;23.30;66.80
51029;DHT22;37054;52.054;8.600;2022-10-18T09:24:10;24.40;67.20
51029;DHT22;37054;52.054;8.600;2022-10-18T09:26:42;24.70;67.00
51029;DHT22;37054;52.054;8.600;2022-10-18T09:29:17;24.80;66.80
51029;DHT22;37054;52.054;8.600;2022-10-18T09:34:49;25.10;65.90
51029;DHT22;37054;52.054;8.600;2022-10-18T09:37:17;25.10;65.40
51029;DHT22;37054;52.054;8.600;2022-10-18T09:39:43;25.10;65.40
51029;DHT22;37054;52.054;8.600;2022-10-18T09:47:57;25.30;65.60
51029;DHT22;37054;52.054;8.600;2022-10-18T09:55:29;25.20;63.90
51029;DHT22;37054;52.054;8.600;2022-10-18T09:57:57;25.10;63.30
51029;DHT22;37054;52.054;8.600;2022-10-18T10:00:25;25.00;63.50
51029;DHT22;37054;52.054;8.600;2022-10-18T10:02:55;24.90;63.80
51029;DHT22;37054;52.054;8.600;2022-10-18T10:05:21;24.80;64.00
51029;DHT22;37054;52.054;8.600;2022-10-18T10:07:47;24.80;63.50
51029;DHT22;37054;52.054;8.600;2022-10-18T10:10:20;24.80;63.30
51029;DHT22;37054;52.054;8.600;2022-10-18T10:12:46;24.70;62.80
51029;DHT22;37054;52.054;8.600;2022-10-18T10:15:16;24.60;63.10
51029;DHT22;37054;52.054;8.600;2022-10-18T10:20:41;24.30;63.40
51029;DHT22;37054;52.054;8.600;2022-10-18T10:23:08;24.20;64.00
51029;DHT22;37054;52.054;8.600;2022-10-18T10:25:40;24.10;64.30
51029;DHT22;37054;52.054;8.600;2022-10-18T10:28:11;24.10;64.60
51029;DHT22;37054;52.054;8.600;2022-10-18T10:30:38;24.30;65.80
51029;DHT22;37054;52.054;8.600;2022-10-18T10:33:04;24.50;65.80
51029;DHT22;37054;52.054;8.600;2022-10-18T10:35:31;24.60;65.20
51029;DHT22;37054;52.054;8.600;2022-10-18T10:37:57;24.60;64.90
51029;DHT22;37054;52.054;8.600;2022-10-18T10:40:23;24.70;65.20
51029;DHT22;37054;52.054;8.600;2022-10-18T10:45:15;25.00;65.00
51029;DHT22;37054;52.054;8.600;2022-10-18T10:47:44;25.20;64.90
51029;DHT22;37054;52.054;8.600;2022-10-18T10:50:10;25.60;64.80
51029;DHT22;37054;52.054;8.600;2022-10-18T10:52:36;25.80;64.40
51029;DHT22;37054;52.054;8.600;2022-10-18T10:55:03;26.00;63.90
51029;DHT22;37054;52.054;8.600;2022-10-18T10:57:29;26.00;63.70
51029;DHT22;37054;52.054;8.600;2022-10-18T10:59:56;26.00;63.20
51029;DHT22;37054;52.054;8.600;2022-10-18T11:04:49;25.90;62.60
51029;DHT22;37054;52.054;8.600;2022-10-18T11:10:02;25.90;62.10
51029;DHT22;37054;52.054;8.600;2022-10-18T11:12:33;25.70;61.80
51029;DHT22;37054;52.054;8.600;2022-10-18T11:17:47;25.70;62.60
51029;DHT22;37054;52.054;8.600;2022-10-18T11:22:46;25.80;62.80
51029;DHT22;37054;52.054;8.600;2022-10-18T11:25:14;25.80;62.00
51029;DHT22;37054;52.054;8.600;2022-10-18T11:30:33;26.40;61.40
51029;DHT22;37054;52.054;8.600;2022-10-18T11:33:09;26.80;61.60
51029;DHT22;37054;52.054;8.600;2022-10-18T11:35:38;27.30;61.40
51029;DHT22;37054;52.054;8.600;2022-10-18T11:38:11;27.70;60.30
51029;DHT22;37054;52.054;8.600;2022-10-18T11:40:42;28.00;60.50
51029;DHT22;37054;52.054;8.600;2022-10-18T11:46:04;28.60;59.30
51029;DHT22;37054;52.054;8.600;2022-10-18T11:59:49;29.50;56.00
51029;DHT22;37054;52.054;8.600;2022-10-18T12:02:39;29.70;56.30
51029;DHT22;37054;52.054;8.600;2022-10-18T12:05:08;29.80;56.30
51029;DHT22;37054;52.054;8.600;2022-10-18T12:07:39;30.00;56.40
51029;DHT22;37054;52.054;8.600;2022-10-18T12:10:06;30.00;56.70
51029;DHT22;37054;52.054;8.600;2022-10-18T12:12:35;30.10;56.60
51029;DHT22;37054;52.054;8.600;2022-10-18T12:15:06;30.00;56.00
51029;DHT22;37054;52.054;8.600;2022-10-18T12:17:44;29.70;56.70
51029;DHT22;37054;52.054;8.600;2022-10-18T12:20:11;29.70;56.80
51029;DHT22;37054;52.054;8.600;2022-10-18T12:22:44;29.70;55.80
51029;DHT22;37054;52.054;8.600;2022-10-18T12:25:12;29.70;55.30
51029;DHT22;37054;52.054;8.600;2022-10-18T12:30:26;29.90;55.30
51029;DHT22;37054;52.054;8.600;2022-10-18T12:32:55;30.00;55.30
51029;DHT22;37054;52.054;8.600;2022-10-18T12:35:25;30.00;53.80
51029;DHT22;37054;52.054;8.600;2022-10-18T12:42:58;29.30;54.10
51029;DHT22;37054;52.054;8.600;2022-10-18T12:45:25;29.00;53.60
51029;DHT22;37054;52.054;8.600;2022-10-18T12:47:51;28.80;53.50
51029;DHT22;37054;52.054;8.600;2022-10-18T12:52:46;28.20;52.00
51029;DHT22;37054;52.054;8.600;2022-10-18T12:55:26;28.00;51.60
51029;DHT22;37054;52.054;8.600;2022-10-18T13:08:53;27.30;53.50
51029;DHT22;37054;52.054;8.600;2022-10-18T13:13:48;27.00;53.10
51029;DHT22;37054;52.054;8.600;2022-10-18T13:19:07;26.50;53.70
51029;DHT22;37054;52.054;8.600;2022-10-18T13:21:46;26.30;53.00
51029;DHT22;37054;52.054;8.600;2022-10-18T13:34:37;25.50;52.50
51029;DHT22;37054;52.054;8.600;2022-10-18T13:39:34;25.30;52.40
51029;DHT22;37054;52.054;8.600;2022-10-18T13:44:33;25.10;50.90
51029;DHT22;37054;52.054;8.600;2022-10-18T14:05:24;24.30;47.90
51029;DHT22;37054;52.054;8.600;2022-10-18T14:07:51;24.30;46.80
51029;DHT22;37054;52.054;8.600;2022-10-18T14:10:29;24.20;46.10
51029;DHT22;37054;52.054;8.600;2022-10-18T14:12:59;24.20;45.00
51029;DHT22;37054;52.054;8.600;2022-10-18T14:15:38;24.10;44.40
51029;DHT22;37054;52.054;8.600;2022-10-18T14:18:10;24.00;43.50
51029;DHT22;37054;52.054;8.600;2022-10-18T14:20:38;24.00;43.60
51029;DHT22;37054;52.054;8.600;2022-10-18T14:25:40;23.80;43.20
51029;DHT22;37054;52.054;8.600;2022-10-18T14:33:26;23.60;43.00
51029;DHT22;37054;52.054;8.600;2022-10-18T14:35:58;23.50;43.70
51029;DHT22;37054;52.054;8.600;2022-10-18T14:38:25;23.50;43.30
51029;DHT22;37054;52.054;8.600;2022-10-18T14:40:59;23.50;43.30
51029;DHT22;37054;52.054;8.600;2022-10-18T14:43:28;23.40;43.20
51029;DHT22;37054;52.054;8.600;2022-10-18T14:45:54;23.40;43.60
51029;DHT22;37054;52.054;8.600;2022-10-18T14:48:31;23.30;43.80
51029;DHT22;37054;52.054;8.600;2022-10-18T14:50:57;23.30;44.70
51029;DHT22;37054;52.054;8.600;2022-10-18T14:53:26;23.20;44.90
51029;DHT22;37054;52.054;8.600;2022-10-18T14:55:55;23.20;44.30
51029;DHT22;37054;52.054;8.600;2022-10-18T14:58:22;23.20;44.10
51029;DHT22;37054;52.054;8.600;2022-10-18T15:00:48;23.10;44.40
51029;DHT22;37054;52.054;8.600;2022-10-18T15:03:14;23.10;44.10
51029;DHT22;37054;52.054;8.600;2022-10-18T15:05:50;23.10;44.30
51029;DHT22;37054;52.054;8.600;2022-10-18T15:08:19;23.00;44.80
51029;DHT22;37054;52.054;8.600;2022-10-18T15:10:45;22.90;45.10
51029;DHT22;37054;52.054;8.600;2022-10-18T15:13:11;22.90;45.10
51029;DHT22;37054;52.054;8.600;2022-10-18T15:15:37;22.80;44.80
51029;DHT22;37054;52.054;8.600;2022-10-18T15:18:03;22.80;45.30
51029;DHT22;37054;52.054;8.600;2022-10-18T15:25:40;22.70;46.30
51029;DHT22;37054;52.054;8.600;2022-10-18T15:28:15;22.60;46.10
51029;DHT22;37054;52.054;8.600;2022-10-18T15:30:47;22.50;45.90
51029;DHT22;37054;52.054;8.600;2022-10-18T15:33:19;22.40;45.00
51029;DHT22;37054;52.054;8.600;2022-10-18T15:35:48;22.40;45.10
51029;DHT22;37054;52.054;8.600;2022-10-18T15:38:28;22.30;45.30
51029;DHT22;37054;52.054;8.600;2022-10-18T15:40:56;22.30;45.50
51029;DHT22;37054;52.054;8.600;2022-10-18T15:45:48;22.20;45.80
51029;DHT22;37054;52.054;8.600;2022-10-18T15:48:26;22.00;45.70
51029;DHT22;37054;52.054;8.600;2022-10-18T15:50:59;22.00;46.00
51029;DHT22;37054;52.054;8.600;2022-10-18T15:53:31;21.90;46.40
51029;DHT22;37054;52.054;8.600;2022-10-18T15:58:49;21.70;47.00
51029;DHT22;37054;52.054;8.600;2022-10-18T16:01:32;21.60;47.30
51029;DHT22;37054;52.054;8.600;2022-10-18T16:03:58;21.40;47.50
51029;DHT22;37054;52.054;8.600;2022-10-18T16:06:25;21.30;47.60
51029;DHT22;37054;52.054;8.600;2022-10-18T16:08:51;21.30;47.50
51029;DHT22;37054;52.054;8.600;2022-10-18T16:11:18;21.20;47.80
51029;DHT22;37054;52.054;8.600;2022-10-18T16:13:44;21.10;47.90
51029;DHT22;37054;52.054;8.600;2022-10-18T16:16:22;21.00;47.90
51029;DHT22;37054;52.054;8.600;2022-10-18T16:18:54;20.80;48.10
51029;DHT22;37054;52.054;8.600;2022-10-18T16:21:22;20.80;48.30
51029;DHT22;37054;52.054;8.600;2022-10-18T16:23:51;20.70;48.40
51029;DHT22;37054;52.054;8.600;2022-10-18T16:26:19;20.60;48.50
51029;DHT22;37054;52.054;8.600;2022-10-18T16:28:45;20.50;48.30
51029;DHT22;37054;52.054;8.600;2022-10-18T16:31:13;20.40;48.50
51029;DHT22;37054;52.054;8.600;2022-10-18T16:33:39;20.30;48.50
51029;DHT22;37054;52.054;8.600;2022-10-18T16:36:05;20.20;48.60
51029;DHT22;37054;52.054;8.600;2022-10-18T16:38:31;20.10;48.80
51029;DHT22;37054;52.054;8.600;2022-10-18T16:41:06;20.00;49.00
51029;DHT22;37054;52.054;8.600;2022-10-18T16:43:32;19.90;49.20
51029;DHT22;37054;52.054;8.600;2022-10-18T16:45:59;19.80;49.50
51029;DHT22;37054;52.054;8.600;2022-10-18T16:48:25;19.70;49.80
51029;DHT22;37054;52.054;8.600;2022-10-18T16:50:54;19.60;49.90
51029;DHT22;37054;52.054;8.600;2022-10-18T16:53:20;19.50;50.10
51029;DHT22;37054;52.054;8.600;2022-10-18T16:55:52;19.30;50.30
51029;DHT22;37054;52.054;8.600;2022-10-18T16:58:18;19.20;50.40
51029;DHT22;37054;52.054;8.600;2022-10-18T17:00:44;19.10;50.60
51029;DHT22;37054;52.054;8.600;2022-10-18T17:03:11;19.00;50.80
51029;DHT22;37054;52.054;8.600;2022-10-18T17:05:37;18.90;50.90
51029;DHT22;37054;52.054;8.600;2022-10-18T17:08:02;18.70;51.00
51029;DHT22;37054;52.054;8.600;2022-10-18T17:10:28;18.60;51.00
51029;DHT22;37054;52.054;8.600;2022-10-18T17:12:56;18.50;51.10
51029;DHT22;37054;52.054;8.600;2022-10-18T17:15:22;18.40;51.20
51029;DHT22;37054;52.054;8.600;2022-10-18T17:17:47;18.30;51.40
51029;DHT22;37054;52.054;8.600;2022-10-18T17:20:17;18.10;51.50
51029;DHT22;37054;52.054;8.600;2022-10-18T17:22:43;18.00;51.70
51029;DHT22;37054;52.054;8.600;2022-10-18T17:25:08;17.90;51.80
51029;DHT22;37054;52.054;8.600;2022-10-18T17:27:34;17.80;51.90
51029;DHT22;37054;52.054;8.600;2022-10-18T17:29:59;17.60;52.10
51029;DHT22;37054;52.054;8.600;2022-10-18T17:32:25;17.50;52.20
51029;DHT22;37054;52.054;8.600;2022-10-18T17:34:51;17.40;52.30
51029;DHT22;37054;52.054;8.600;2022-10-18T17:37:16;17.30;52.50
51029;DHT22;37054;52.054;8.600;2022-10-18T17:39:42;17.20;52.70
51029;DHT22;37054;52.054;8.600;2022-10-18T17:42:07;17.10;52.80
51029;DHT22;37054;52.054;8.600;2022-10-18T17:44:33;17.10;52.90
51029;DHT22;37054;52.054;8.600;2022-10-18T17:46:59;16.90;53.00
51029;DHT22;37054;52.054;8.600;2022-10-18T17:49:24;16.80;53.10
51029;DHT22;37054;52.054;8.600;2022-10-18T17:51:50;16.80;53.20
51029;DHT22;37054;52.054;8.600;2022-10-18T17:54:16;16.70;53.40
51029;DHT22;37054;52.054;8.600;2022-10-18T17:56:41;16.60;53.40
51029;DHT22;37054;52.054;8.600;2022-10-18T17:59:09;16.50;53.60
51029;DHT22;37054;52.054;8.600;2022-10-18T18:01:34;16.40;53.80
51029;DHT22;37054;52.054;8.600;2022-10-18T18:04:00;16.30;53.90
51029;DHT22;37054;52.054;8.600;2022-10-18T18:06:27;16.30;54.00
51029;DHT22;37054;52.054;8.600;2022-10-18T18:08:58;16.20;54.10
51029;DHT22;37054;52.054;8.600;2022-10-18T18:11:24;16.20;54.20
51029;DHT22;37054;52.054;8.600;2022-10-18T18:13:49;16.10;54.20
51029;DHT22;37054;52.054;8.600;2022-10-18T18:16:19;16.00;54.20
51029;DHT22;37054;52.054;8.600;2022-10-18T18:18:45;15.90;54.30
51029;DHT22;37054;52.054;8.600;2022-10-18T18:21:11;15.80;54.40
51029;DHT22;37054;52.054;8.600;2022-10-18T18:23:37;15.80;54.40
51029;DHT22;37054;52.054;8.600;2022-10-18T18:26:03;15.70;54.50